createdAt,value
2018-05-02T00:01:32.504Z,0.00
2018-05-02T00:02:32.498Z,0.00
2018-05-02T00:04:29.381Z,0.00
2018-05-02T00:05:28.421Z,0.00
2018-05-02T00:07:24.363Z,0.00
2018-05-02T00:08:24.385Z,0.00
2018-05-02T00:10:20.319Z,0.00
2018-05-02T00:11:20.336Z,0.00
2018-05-02T00:13:16.307Z,0.00
2018-05-02T00:14:16.276Z,0.00
2018-05-02T00:16:14.230Z,0.00
2018-05-02T00:17:14.205Z,0.00
2018-05-02T00:19:12.129Z,0.00
2018-05-02T00:20:12.123Z,0.00
2018-05-02T00:22:10.570Z,0.00
2018-05-02T00:23:10.060Z,0.00
2018-05-02T00:25:06.018Z,0.00
2018-05-02T00:26:06.012Z,0.00
2018-05-02T00:28:01.919Z,0.00
2018-05-02T00:29:01.917Z,0.00
2018-05-02T00:30:57.846Z,0.00
2018-05-02T00:31:57.838Z,0.00
2018-05-02T00:33:53.803Z,0.00
2018-05-02T00:34:53.811Z,0.00
2018-05-02T00:36:49.737Z,0.00
2018-05-02T00:37:49.734Z,0.00
2018-05-02T00:39:45.638Z,0.00
2018-05-02T00:40:45.648Z,0.00
2018-05-02T00:42:41.591Z,0.00
2018-05-02T00:43:41.583Z,0.00
2018-05-02T00:45:37.580Z,0.00
2018-05-02T00:46:38.037Z,0.00
2018-05-02T00:48:33.460Z,0.00
2018-05-02T00:49:33.406Z,0.00
2018-05-02T00:51:29.355Z,0.00
2018-05-02T00:52:29.356Z,0.00
2018-05-02T00:54:25.317Z,0.00
2018-05-02T00:55:25.273Z,0.00
2018-05-02T00:57:21.747Z,0.00
2018-05-02T00:58:21.725Z,0.00
2018-05-02T01:00:19.125Z,0.00
2018-05-02T01:01:19.158Z,0.00
2018-05-02T01:03:16.058Z,0.00
2018-05-02T01:04:16.064Z,0.00
2018-05-02T01:06:12.048Z,0.00
2018-05-02T01:07:11.957Z,0.00
2018-05-02T01:09:08.925Z,0.00
2018-05-02T01:10:08.411Z,0.00
2018-05-02T01:12:04.351Z,0.00
2018-05-02T01:13:03.820Z,0.00
2018-05-02T01:15:01.917Z,0.00
2018-05-02T01:16:02.783Z,0.00
2018-05-02T01:17:57.865Z,0.00
2018-05-02T01:18:57.841Z,0.00
2018-05-02T01:20:54.298Z,0.00
2018-05-02T01:21:54.283Z,0.00
2018-05-02T01:23:49.735Z,0.00
2018-05-02T01:24:49.711Z,0.00
2018-05-02T01:26:46.163Z,0.00
2018-05-02T01:27:45.684Z,0.00
2018-05-02T01:29:44.103Z,0.00
2018-05-02T01:30:43.571Z,0.00
2018-05-02T01:32:41.037Z,0.00
2018-05-02T01:33:39.520Z,0.00
2018-05-02T01:35:35.978Z,0.00
2018-05-02T01:36:35.437Z,0.00
2018-05-02T01:38:33.890Z,0.00
2018-05-02T01:39:33.363Z,0.00
2018-05-02T01:41:31.850Z,0.00
2018-05-02T01:42:33.319Z,0.00
2018-05-02T01:44:29.503Z,0.00
2018-05-02T01:45:29.503Z,0.00
2018-05-02T01:47:29.946Z,0.00
2018-05-02T01:48:27.574Z,0.00
2018-05-02T01:50:24.070Z,0.00
2018-05-02T01:51:23.507Z,0.00
2018-05-02T01:53:19.464Z,0.00
2018-05-02T01:54:19.436Z,0.00
2018-05-02T01:56:15.345Z,0.00
2018-05-02T01:57:15.354Z,0.00
2018-05-02T01:59:14.280Z,0.00
2018-05-02T02:00:13.410Z,0.00
2018-05-02T02:02:11.349Z,0.00
2018-05-02T02:03:11.323Z,0.00
2018-05-02T02:05:10.304Z,0.00
2018-05-02T02:06:09.384Z,0.00
2018-05-02T02:08:07.358Z,0.00
2018-05-02T02:09:07.843Z,0.00
2018-05-02T02:11:03.257Z,0.00
2018-05-02T02:12:03.254Z,0.00
2018-05-02T02:14:02.695Z,0.00
2018-05-02T02:15:02.193Z,0.00
2018-05-02T02:17:01.792Z,0.00
2018-05-02T02:18:01.791Z,0.00
2018-05-02T02:20:01.226Z,0.00
2018-05-02T02:20:59.844Z,0.00
2018-05-02T02:22:58.777Z,0.00
2018-05-02T02:23:57.924Z,0.00
2018-05-02T02:25:53.825Z,0.00
2018-05-02T02:26:53.827Z,0.00
2018-05-02T02:28:49.753Z,0.00
2018-05-02T02:29:49.736Z,0.00
2018-05-02T02:31:48.223Z,0.00
2018-05-02T02:32:47.804Z,0.00
2018-05-02T02:34:46.755Z,0.00
2018-05-02T02:35:45.725Z,0.00
2018-05-02T02:37:43.655Z,0.00
2018-05-02T02:38:43.653Z,0.00
2018-05-02T02:40:39.660Z,0.00
2018-05-02T02:41:40.099Z,0.00
2018-05-02T02:43:36.036Z,0.00
2018-05-02T02:44:35.527Z,0.00
2018-05-02T02:46:34.500Z,0.00
2018-05-02T02:47:34.983Z,0.00
2018-05-02T02:49:29.434Z,0.00
2018-05-02T02:50:29.935Z,0.00
2018-05-02T02:52:25.869Z,0.00
2018-05-02T02:53:25.860Z,0.00
2018-05-02T02:55:24.373Z,0.00
2018-05-02T02:56:23.460Z,0.00
2018-05-02T02:58:21.408Z,0.00
2018-05-02T02:59:21.392Z,0.00
2018-05-02T03:01:19.883Z,0.00
2018-05-02T03:02:19.310Z,0.00
2018-05-02T03:04:16.680Z,0.00
2018-05-02T03:05:15.216Z,0.00
2018-05-02T03:07:11.172Z,0.00
2018-05-02T03:08:11.144Z,0.00
2018-05-02T03:10:09.132Z,0.00
2018-05-02T03:11:07.107Z,0.00
2018-05-02T03:13:03.076Z,0.00
2018-05-02T03:14:03.047Z,0.00
2018-05-02T03:15:58.944Z,0.00
2018-05-02T03:16:59.508Z,0.00
2018-05-02T03:18:54.945Z,0.00
2018-05-02T03:19:54.905Z,0.00
2018-05-02T03:21:51.347Z,0.00
2018-05-02T03:22:50.848Z,0.00
2018-05-02T03:24:49.787Z,0.00
2018-05-02T03:25:49.287Z,0.00
2018-05-02T03:27:46.742Z,0.00
2018-05-02T03:28:46.725Z,0.00
2018-05-02T03:30:44.634Z,0.00
2018-05-02T03:31:44.631Z,0.00
2018-05-02T03:33:40.555Z,0.00
2018-05-02T03:34:40.558Z,0.00
2018-05-02T03:36:38.724Z,0.00
2018-05-02T03:37:39.510Z,0.00
2018-05-02T03:39:35.083Z,0.00
2018-05-02T03:40:34.573Z,0.00
2018-05-02T03:42:32.650Z,0.00
2018-05-02T03:43:32.647Z,0.00
2018-05-02T03:45:31.118Z,0.00
2018-05-02T03:46:30.535Z,0.00
2018-05-02T03:48:26.521Z,0.00
2018-05-02T03:49:26.489Z,0.00
2018-05-02T03:51:22.415Z,0.00
2018-05-02T03:52:22.397Z,0.00
2018-05-02T03:54:20.881Z,0.00
2018-05-02T03:55:20.498Z,0.00
2018-05-02T03:57:16.953Z,0.00
2018-05-02T03:58:16.443Z,0.00
2018-05-02T04:00:14.914Z,0.00
2018-05-02T04:01:14.885Z,0.00
2018-05-02T04:03:12.295Z,5.63
2018-05-02T04:04:12.273Z,5.63
2018-05-02T04:06:10.196Z,5.63
2018-05-02T04:07:10.170Z,5.63
2018-05-02T04:09:11.130Z,5.63
2018-05-02T04:10:11.635Z,5.63
2018-05-02T04:12:08.666Z,5.63
2018-05-02T04:13:08.567Z,11.25
2018-05-02T04:15:06.489Z,11.25
2018-05-02T04:16:07.019Z,11.25
2018-05-02T04:18:04.429Z,11.25
2018-05-02T04:19:04.963Z,16.88
2018-05-02T04:21:02.343Z,16.88
2018-05-02T04:22:02.356Z,16.88
2018-05-02T04:23:58.329Z,16.88
2018-05-02T04:24:58.806Z,22.50
2018-05-02T04:26:56.347Z,22.50
2018-05-02T04:27:57.225Z,22.50
2018-05-02T04:29:54.299Z,28.13
2018-05-02T04:30:54.800Z,28.13
2018-05-02T04:32:53.213Z,28.13
2018-05-02T04:33:52.333Z,28.13
2018-05-02T04:35:50.364Z,33.75
2018-05-02T04:36:50.365Z,33.75
2018-05-02T04:38:49.322Z,39.38
2018-05-02T04:39:48.433Z,39.38
2018-05-02T04:41:46.517Z,45.00
2018-05-02T04:42:46.505Z,45.00
2018-05-02T04:44:45.458Z,50.63
2018-05-02T04:45:44.581Z,50.63
2018-05-02T04:47:41.036Z,61.88
2018-05-02T04:48:40.536Z,67.50
2018-05-02T04:50:36.505Z,84.38
2018-05-02T04:51:36.987Z,84.38
2018-05-02T04:53:33.423Z,95.63
2018-05-02T04:54:32.933Z,101.25
2018-05-02T04:56:30.298Z,106.88
2018-05-02T04:57:30.323Z,106.88
2018-05-02T04:59:28.248Z,112.50
2018-05-02T05:00:28.737Z,106.88
2018-05-02T05:02:26.165Z,84.38
2018-05-02T05:03:26.162Z,73.13
2018-05-02T05:05:25.116Z,84.38
2018-05-02T05:06:24.103Z,84.38
2018-05-02T05:08:22.579Z,84.38
2018-05-02T05:09:22.204Z,78.75
2018-05-02T05:11:20.640Z,95.63
2018-05-02T05:12:20.171Z,95.63
2018-05-02T05:14:16.112Z,95.63
2018-05-02T05:15:16.074Z,95.63
2018-05-02T05:17:11.995Z,95.63
2018-05-02T05:18:12.557Z,95.63
2018-05-02T05:20:07.991Z,95.63
2018-05-02T05:21:07.931Z,95.63
2018-05-02T05:23:03.865Z,101.25
2018-05-02T05:24:03.855Z,106.88
2018-05-02T05:25:59.802Z,95.63
2018-05-02T05:27:00.753Z,95.63
2018-05-02T05:28:57.777Z,101.25
2018-05-02T05:29:57.737Z,106.88
2018-05-02T05:31:55.722Z,112.50
2018-05-02T05:32:55.682Z,112.50
2018-05-02T05:34:54.137Z,123.75
2018-05-02T05:35:53.779Z,129.38
2018-05-02T05:37:51.723Z,106.88
2018-05-02T05:38:51.692Z,135.00
2018-05-02T05:40:49.780Z,106.88
2018-05-02T05:41:49.762Z,151.88
2018-05-02T05:43:48.244Z,146.25
2018-05-02T05:44:47.701Z,151.88
2018-05-02T05:46:45.772Z,157.50
2018-05-02T05:47:45.778Z,157.50
2018-05-02T05:49:44.724Z,157.50
2018-05-02T05:50:44.250Z,157.50
2018-05-02T05:52:41.652Z,146.25
2018-05-02T05:53:41.662Z,157.50
2018-05-02T05:55:38.605Z,157.50
2018-05-02T05:56:38.087Z,157.50
2018-05-02T05:58:38.528Z,157.50
2018-05-02T05:59:39.366Z,146.25
2018-05-02T06:01:36.471Z,140.63
2018-05-02T06:02:36.087Z,129.38
2018-05-02T06:04:35.039Z,151.88
2018-05-02T06:05:34.170Z,151.88
2018-05-02T06:07:33.639Z,151.88
2018-05-02T06:08:32.257Z,157.50
2018-05-02T06:10:30.699Z,151.88
2018-05-02T06:11:30.697Z,157.50
2018-05-02T06:13:28.157Z,151.88
2018-05-02T06:14:28.124Z,151.88
2018-05-02T06:16:26.069Z,151.88
2018-05-02T06:17:27.004Z,151.88
2018-05-02T06:19:24.016Z,151.88
2018-05-02T06:20:24.042Z,151.88
2018-05-02T06:22:22.511Z,151.88
2018-05-02T06:23:22.119Z,151.88
2018-05-02T06:25:21.080Z,151.88
2018-05-02T06:26:20.057Z,151.88
2018-05-02T06:28:17.081Z,151.88
2018-05-02T06:29:16.012Z,151.88
2018-05-02T06:31:11.946Z,151.88
2018-05-02T06:32:11.944Z,151.88
2018-05-02T06:34:07.899Z,151.88
2018-05-02T06:35:07.945Z,151.88
2018-05-02T06:37:06.378Z,151.88
2018-05-02T06:38:06.344Z,151.88
2018-05-02T06:40:03.745Z,151.88
2018-05-02T06:41:03.785Z,157.50
2018-05-02T06:43:02.723Z,157.50
2018-05-02T06:44:01.846Z,157.50
2018-05-02T06:46:00.827Z,157.50
2018-05-02T06:47:00.808Z,157.50
2018-05-02T06:48:55.868Z,157.50
2018-05-02T06:49:55.871Z,157.50
2018-05-02T06:51:53.808Z,157.50
2018-05-02T06:52:53.816Z,163.13
2018-05-02T06:54:50.297Z,157.50
2018-05-02T06:55:49.843Z,157.50
2018-05-02T06:57:47.806Z,163.13
2018-05-02T06:58:47.773Z,163.13
2018-05-02T07:00:48.789Z,163.13
2018-05-02T07:01:48.220Z,163.13
2018-05-02T07:03:50.185Z,163.13
2018-05-02T07:04:49.176Z,163.13
2018-05-02T07:06:50.664Z,163.13
2018-05-02T07:07:49.149Z,163.13
2018-05-02T07:09:48.108Z,163.13
2018-05-02T07:10:47.245Z,163.13
2018-05-02T07:12:48.204Z,157.50
2018-05-02T07:13:48.231Z,163.13
2018-05-02T07:15:48.654Z,163.13
2018-05-02T07:16:48.656Z,163.13
2018-05-02T07:18:47.085Z,168.75
2018-05-02T07:19:46.261Z,168.75
2018-05-02T07:22:01.358Z,168.75
2018-05-02T07:23:01.326Z,168.75
2018-05-02T07:24:47.201Z,168.75
2018-05-02T07:25:47.126Z,168.75
2018-05-02T07:27:48.680Z,168.75
2018-05-02T07:28:47.639Z,168.75
2018-05-02T07:30:45.708Z,168.75
2018-05-02T07:31:46.602Z,168.75
2018-05-02T07:33:46.224Z,168.75
2018-05-02T07:34:46.165Z,168.75
2018-05-02T07:36:47.138Z,168.75
2018-05-02T07:37:47.131Z,168.75
2018-05-02T07:39:47.111Z,168.75
2018-05-02T07:40:47.595Z,168.75
2018-05-02T07:42:47.537Z,168.75
2018-05-02T07:43:48.013Z,168.75
2018-05-02T07:45:48.992Z,163.13
2018-05-02T07:46:48.465Z,168.75
2018-05-02T07:48:48.864Z,174.38
2018-05-02T07:49:48.892Z,157.50
2018-05-02T07:51:46.823Z,151.88
2018-05-02T07:52:46.837Z,163.13
2018-05-02T07:54:46.810Z,157.50
2018-05-02T07:55:47.763Z,163.13
2018-05-02T07:57:45.217Z,151.88
2018-05-02T07:58:44.737Z,140.63
2018-05-02T08:00:45.684Z,163.13
2018-05-02T08:01:45.686Z,157.50
2018-05-02T08:03:43.273Z,135.00
2018-05-02T08:04:43.275Z,157.50
2018-05-02T08:06:42.252Z,146.25
2018-05-02T08:07:42.204Z,151.88
2018-05-02T08:09:43.265Z,180.00
2018-05-02T08:10:43.174Z,185.63
2018-05-02T08:12:41.122Z,185.63
2018-05-02T08:13:41.117Z,163.13
2018-05-02T08:15:38.559Z,163.13
2018-05-02T08:16:38.526Z,157.50
2018-05-02T08:18:38.990Z,151.88
2018-05-02T08:19:38.991Z,174.38
2018-05-02T08:21:39.955Z,180.00
2018-05-02T08:22:39.426Z,196.88
2018-05-02T08:24:39.875Z,202.50
2018-05-02T08:25:40.871Z,213.75
2018-05-02T08:27:40.835Z,253.13
2018-05-02T08:28:41.367Z,253.13
2018-05-02T08:30:36.845Z,253.13
2018-05-02T08:31:36.267Z,241.88
2018-05-02T08:33:37.287Z,264.38
2018-05-02T08:34:36.787Z,275.63
2018-05-02T08:36:37.244Z,275.63
2018-05-02T08:37:37.735Z,241.88
2018-05-02T08:39:42.698Z,236.25
2018-05-02T08:40:41.159Z,225.00
2018-05-02T08:42:39.162Z,264.38
2018-05-02T08:43:39.098Z,281.25
2018-05-02T08:45:40.596Z,241.88
2018-05-02T08:46:39.546Z,241.88
2018-05-02T08:48:40.498Z,230.63
2018-05-02T08:49:40.506Z,219.38
2018-05-02T08:51:38.958Z,202.50
2018-05-02T08:52:38.073Z,202.50
2018-05-02T08:54:38.543Z,185.63
2018-05-02T08:55:38.494Z,191.25
2018-05-02T08:57:39.010Z,202.50
2018-05-02T08:58:38.955Z,202.50
2018-05-02T09:00:37.417Z,213.75
2018-05-02T09:01:37.043Z,202.50
2018-05-02T09:03:36.043Z,202.50
2018-05-02T09:04:37.506Z,202.50
2018-05-02T09:06:37.476Z,208.13
2018-05-02T09:07:36.474Z,208.13
2018-05-02T09:09:36.871Z,219.38
2018-05-02T09:10:36.958Z,213.75
2018-05-02T09:12:40.270Z,225.00
2018-05-02T09:13:38.065Z,236.25
2018-05-02T09:15:38.535Z,225.00
2018-05-02T09:16:38.559Z,241.88
2018-05-02T09:18:37.474Z,241.88
2018-05-02T09:19:36.413Z,213.75
2018-05-02T09:21:36.951Z,219.38
2018-05-02T09:22:37.888Z,213.75
2018-05-02T09:24:34.338Z,219.38
2018-05-02T09:25:34.272Z,213.75
2018-05-02T09:27:30.936Z,196.88
2018-05-02T09:28:30.926Z,196.88
2018-05-02T09:30:31.400Z,191.25
2018-05-02T09:31:32.384Z,191.25
2018-05-02T09:33:36.942Z,174.38
2018-05-02T09:34:38.911Z,247.50
2018-05-02T09:36:36.874Z,258.75
2018-05-02T09:37:36.390Z,247.50
2018-05-02T09:39:35.286Z,213.75
2018-05-02T09:40:34.293Z,230.63
2018-05-02T09:42:33.252Z,219.38
2018-05-02T09:43:32.727Z,253.13
2018-05-02T09:45:31.164Z,230.63
2018-05-02T09:46:30.663Z,258.75
2018-05-02T09:48:30.613Z,286.88
2018-05-02T09:49:30.584Z,326.25
2018-05-02T09:51:32.019Z,371.25
2018-05-02T09:52:31.038Z,343.13
2018-05-02T09:54:31.620Z,219.38
2018-05-02T09:55:31.478Z,202.50
2018-05-02T09:57:31.439Z,202.50
2018-05-02T09:58:29.442Z,202.50
2018-05-02T10:00:27.465Z,286.88
2018-05-02T10:01:29.342Z,286.88
2018-05-02T10:03:23.389Z,213.75
2018-05-02T10:04:24.475Z,191.25
2018-05-02T10:06:21.323Z,236.25
2018-05-02T10:07:22.871Z,264.38
2018-05-02T10:09:20.295Z,157.50
2018-05-02T10:10:20.360Z,174.38
2018-05-02T10:12:18.387Z,146.25
2018-05-02T10:13:17.507Z,180.00
2018-05-02T10:15:18.000Z,213.75
2018-05-02T10:16:18.007Z,236.25
2018-05-02T10:18:17.962Z,219.38
2018-05-02T10:19:16.093Z,247.50
2018-05-02T10:21:14.551Z,253.13
2018-05-02T10:22:14.103Z,213.75
2018-05-02T10:24:15.529Z,258.75
2018-05-02T10:25:14.526Z,258.75
2018-05-02T10:27:12.985Z,275.63
2018-05-02T10:28:12.656Z,320.63
2018-05-02T10:30:12.077Z,360.00
2018-05-02T10:31:10.751Z,286.88
2018-05-02T10:33:08.766Z,225.00
2018-05-02T10:34:08.707Z,208.13
2018-05-02T10:36:08.152Z,185.63
2018-05-02T10:37:07.155Z,180.00
2018-05-02T10:39:05.569Z,185.63
2018-05-02T10:40:04.598Z,264.38
2018-05-02T10:42:02.805Z,326.25
2018-05-02T10:43:02.741Z,230.63
2018-05-02T10:45:00.827Z,196.88
2018-05-02T10:46:00.869Z,202.50
2018-05-02T10:48:02.336Z,213.75
2018-05-02T10:49:01.813Z,253.13
2018-05-02T10:51:02.771Z,320.63
2018-05-02T10:52:01.763Z,337.50
2018-05-02T10:54:02.820Z,315.00
2018-05-02T10:55:02.283Z,253.13
2018-05-02T10:57:02.675Z,253.13
2018-05-02T10:58:02.651Z,236.25
2018-05-02T11:00:03.132Z,191.25
2018-05-02T11:01:04.160Z,196.88
2018-05-02T11:03:03.614Z,196.88
2018-05-02T11:04:03.593Z,191.25
2018-05-02T11:06:02.047Z,208.13
2018-05-02T11:07:03.113Z,208.13
2018-05-02T11:09:02.005Z,219.38
2018-05-02T11:10:02.459Z,213.75
2018-05-02T11:12:01.458Z,196.88
2018-05-02T11:12:59.915Z,196.88
2018-05-02T11:14:57.901Z,185.63
2018-05-02T11:15:57.860Z,163.13
2018-05-02T11:17:58.348Z,163.13
2018-05-02T11:18:58.336Z,219.38
2018-05-02T11:20:59.279Z,202.50
2018-05-02T11:21:58.814Z,230.63
2018-05-02T11:23:59.264Z,202.50
2018-05-02T11:24:59.243Z,191.25
2018-05-02T11:26:57.255Z,163.13
2018-05-02T11:27:57.210Z,202.50
2018-05-02T11:29:55.278Z,208.13
2018-05-02T11:30:55.245Z,208.13
2018-05-02T11:32:53.153Z,180.00
2018-05-02T11:33:53.636Z,213.75
2018-05-02T11:35:50.578Z,258.75
2018-05-02T11:36:50.613Z,253.13
2018-05-02T11:38:46.974Z,320.63
2018-05-02T11:39:45.003Z,303.75
2018-05-02T11:41:42.988Z,320.63
2018-05-02T11:42:43.437Z,331.88
2018-05-02T11:44:41.906Z,360.00
2018-05-02T11:45:41.486Z,348.75
2018-05-02T11:47:41.411Z,326.25
2018-05-02T11:48:41.395Z,320.63
2018-05-02T11:50:41.840Z,298.13
2018-05-02T11:51:41.840Z,298.13
2018-05-02T11:53:42.301Z,292.50
2018-05-02T11:54:42.296Z,292.50
2018-05-02T11:56:40.261Z,315.00
2018-05-02T11:57:41.197Z,320.63
2018-05-02T11:59:38.741Z,337.50
2018-05-02T12:00:38.208Z,320.63
2018-05-02T12:02:34.235Z,270.00
2018-05-02T12:03:34.215Z,258.75
2018-05-02T12:05:33.135Z,270.00
2018-05-02T12:06:32.263Z,275.63
2018-05-02T12:08:30.719Z,275.63
2018-05-02T12:09:30.737Z,275.63
2018-05-02T12:11:28.335Z,225.00
2018-05-02T12:12:28.313Z,213.75
2018-05-02T12:14:26.831Z,225.00
2018-05-02T12:15:27.299Z,241.88
2018-05-02T12:17:24.364Z,331.88
2018-05-02T12:18:24.900Z,331.88
2018-05-02T12:20:22.845Z,309.38
2018-05-02T12:21:22.380Z,315.00
2018-05-02T12:23:19.318Z,337.50
2018-05-02T12:24:19.304Z,388.13
2018-05-02T12:26:18.276Z,348.75
2018-05-02T12:27:17.214Z,309.38
2018-05-02T12:29:15.229Z,292.50
2018-05-02T12:30:15.216Z,315.00
2018-05-02T12:32:15.720Z,270.00
2018-05-02T12:33:15.774Z,281.25
2018-05-02T12:35:16.637Z,270.00
2018-05-02T12:36:16.147Z,270.00
2018-05-02T12:38:17.613Z,253.13
2018-05-02T12:39:16.607Z,241.88
2018-05-02T12:41:16.075Z,241.88
2018-05-02T12:42:14.753Z,258.75
2018-05-02T12:44:15.675Z,298.13
2018-05-02T12:45:15.671Z,309.38
2018-05-02T12:47:17.162Z,337.50
2018-05-02T12:48:15.705Z,354.38
2018-05-02T12:50:16.185Z,382.50
2018-05-02T12:51:17.116Z,399.38
2018-05-02T12:53:14.136Z,405.00
2018-05-02T12:54:14.110Z,388.13
2018-05-02T12:56:12.620Z,365.63
2018-05-02T12:57:12.215Z,360.00
2018-05-02T12:59:10.725Z,371.25
2018-05-02T13:00:10.187Z,348.75
2018-05-02T13:02:07.151Z,320.63
2018-05-02T13:03:06.150Z,320.63
2018-05-02T13:05:05.603Z,337.50
2018-05-02T13:06:07.031Z,337.50
2018-05-02T13:08:01.251Z,326.25
2018-05-02T13:09:00.267Z,315.00
2018-05-02T13:10:56.343Z,320.63
2018-05-02T13:11:56.753Z,320.63
2018-05-02T13:13:52.202Z,354.38
2018-05-02T13:14:53.208Z,371.25
2018-05-02T13:16:52.188Z,376.88
2018-05-02T13:17:51.142Z,371.25
2018-05-02T13:19:49.298Z,382.50
2018-05-02T13:20:49.297Z,393.75
2018-05-02T13:22:46.471Z,410.63
2018-05-02T13:23:46.550Z,410.63
2018-05-02T13:25:42.377Z,405.00
2018-05-02T13:26:42.866Z,410.63
2018-05-02T13:28:41.095Z,410.63
2018-05-02T13:29:42.385Z,410.63
2018-05-02T13:31:39.350Z,393.75
2018-05-02T13:32:38.635Z,382.50
2018-05-02T13:34:37.621Z,382.50
2018-05-02T13:35:36.851Z,393.75
2018-05-02T13:37:32.739Z,399.38
2018-05-02T13:38:32.769Z,405.00
2018-05-02T13:40:33.735Z,388.13
2018-05-02T13:41:33.348Z,376.88
2018-05-02T13:43:31.880Z,343.13
2018-05-02T13:44:32.327Z,337.50
2018-05-02T13:46:29.915Z,326.25
2018-05-02T13:47:29.412Z,326.25
2018-05-02T13:49:28.429Z,320.63
2018-05-02T13:50:27.455Z,320.63
2018-05-02T13:52:25.938Z,348.75
2018-05-02T13:53:25.593Z,365.63
2018-05-02T13:55:22.519Z,360.00
2018-05-02T13:56:21.569Z,337.50
2018-05-02T13:58:17.992Z,320.63
2018-05-02T13:59:17.996Z,326.25
2018-05-02T14:01:13.454Z,343.13
2018-05-02T14:02:14.530Z,337.50
2018-05-02T14:04:11.462Z,331.88
2018-05-02T14:05:12.399Z,343.13
2018-05-02T14:07:08.395Z,354.38
2018-05-02T14:08:08.389Z,354.38
2018-05-02T14:10:06.391Z,354.38
2018-05-02T14:11:06.866Z,360.00
2018-05-02T14:13:06.875Z,348.75
2018-05-02T14:14:07.804Z,337.50
2018-05-02T14:16:07.847Z,326.25
2018-05-02T14:17:07.368Z,320.63
2018-05-02T14:19:08.273Z,337.50
2018-05-02T14:20:07.742Z,348.75
2018-05-02T14:22:05.707Z,360.00
2018-05-02T14:23:06.236Z,360.00
2018-05-02T14:25:02.178Z,354.38
2018-05-02T14:26:01.627Z,354.38
2018-05-02T14:28:00.622Z,354.38
2018-05-02T14:29:00.130Z,348.75
2018-05-02T14:30:57.576Z,343.13
2018-05-02T14:31:57.575Z,343.13
2018-05-02T14:33:54.521Z,320.63
2018-05-02T14:34:54.117Z,309.38
2018-05-02T14:36:51.503Z,315.00
2018-05-02T14:37:51.981Z,320.63
2018-05-02T14:39:51.459Z,315.00
2018-05-02T14:40:49.939Z,320.63
2018-05-02T14:42:50.487Z,337.50
2018-05-02T14:43:50.425Z,337.50
2018-05-02T14:45:48.377Z,348.75
2018-05-02T14:46:47.987Z,343.13
2018-05-02T14:48:45.982Z,337.50
2018-05-02T14:49:46.458Z,337.50
2018-05-02T14:51:44.410Z,331.88
2018-05-02T14:52:43.890Z,331.88
2018-05-02T14:54:44.910Z,331.88
2018-05-02T14:55:44.358Z,331.88
2018-05-02T14:57:42.377Z,326.25
2018-05-02T14:58:42.315Z,326.25
2018-05-02T15:00:39.260Z,320.63
2018-05-02T15:02:54.302Z,320.63
2018-05-02T15:03:54.239Z,309.38
2018-05-02T15:05:52.701Z,303.75
2018-05-02T15:06:53.167Z,298.13
2018-05-02T15:08:52.819Z,298.13
2018-05-02T15:09:52.779Z,298.13
2018-05-02T15:11:51.792Z,292.50
2018-05-02T15:12:50.778Z,292.50
2018-05-02T15:14:51.672Z,281.25
2018-05-02T15:15:52.678Z,281.25
2018-05-02T15:17:50.303Z,292.50
2018-05-02T15:18:49.283Z,303.75
2018-05-02T15:20:50.289Z,315.00
2018-05-02T15:21:49.774Z,315.00
2018-05-02T15:23:49.245Z,320.63
2018-05-02T15:24:47.926Z,326.25
2018-05-02T15:26:48.868Z,326.25
2018-05-02T15:27:48.421Z,326.25
2018-05-02T15:29:46.883Z,309.38
2018-05-02T15:30:46.422Z,303.75
2018-05-02T15:32:46.948Z,292.50
2018-05-02T15:33:47.387Z,286.88
2018-05-02T15:35:46.836Z,286.88
2018-05-02T15:36:44.941Z,275.63
2018-05-02T15:38:42.417Z,270.00
2018-05-02T15:39:41.880Z,275.63
2018-05-02T15:41:39.855Z,264.38
2018-05-02T15:42:40.375Z,264.38
2018-05-02T15:44:42.828Z,253.13
2018-05-02T15:45:43.381Z,253.13
2018-05-02T15:47:43.841Z,270.00
2018-05-02T15:48:41.804Z,270.00
2018-05-02T15:50:43.273Z,275.63
2018-05-02T15:51:42.323Z,275.63
2018-05-02T15:53:40.233Z,264.38
2018-05-02T15:54:41.740Z,258.75
2018-05-02T15:56:41.337Z,258.75
2018-05-02T15:57:41.235Z,258.75
2018-05-02T15:59:38.640Z,258.75
2018-05-02T16:00:38.660Z,258.75
2018-05-02T16:02:39.341Z,253.13
2018-05-02T16:03:39.731Z,247.50
2018-05-02T16:05:39.606Z,241.88
2018-05-02T16:06:40.110Z,241.88
2018-05-02T16:08:40.025Z,236.25
2018-05-02T16:09:40.986Z,236.25
2018-05-02T16:11:41.976Z,247.50
2018-05-02T16:12:40.985Z,241.88
2018-05-02T16:14:38.521Z,236.25
2018-05-02T16:15:38.487Z,236.25
2018-05-02T16:17:38.899Z,225.00
2018-05-02T16:18:38.888Z,225.00
2018-05-02T16:20:39.345Z,213.75
2018-05-02T16:21:39.856Z,213.75
2018-05-02T16:23:37.351Z,213.75
2018-05-02T16:24:38.886Z,213.75
2018-05-02T16:26:39.842Z,225.00
2018-05-02T16:27:37.857Z,225.00
2018-05-02T16:29:36.238Z,225.00
2018-05-02T16:30:36.226Z,225.00
2018-05-02T16:32:33.765Z,213.75
2018-05-02T16:33:33.691Z,213.75
2018-05-02T16:35:29.595Z,213.75
2018-05-02T16:36:30.145Z,213.75
2018-05-02T16:38:25.614Z,208.13
2018-05-02T16:39:25.571Z,208.13
2018-05-02T16:41:21.557Z,196.88
2018-05-02T16:42:21.540Z,191.25
2018-05-02T16:44:18.520Z,185.63
2018-05-02T16:45:17.515Z,180.00
2018-05-02T16:47:13.598Z,168.75
2018-05-02T16:48:13.500Z,163.13
2018-05-02T16:50:09.946Z,163.13
2018-05-02T16:51:09.930Z,157.50
2018-05-02T16:53:05.407Z,146.25
2018-05-02T16:54:05.357Z,140.63
2018-05-02T16:56:02.845Z,135.00
2018-05-02T16:57:02.283Z,135.00
2018-05-02T16:59:01.764Z,151.88
2018-05-02T17:00:00.234Z,135.00
2018-05-02T17:01:59.185Z,140.63
2018-05-02T17:02:58.319Z,140.63
2018-05-02T17:04:57.329Z,135.00
2018-05-02T17:05:57.274Z,129.38
2018-05-02T17:07:55.371Z,123.75
2018-05-02T17:08:54.883Z,118.13
2018-05-02T17:10:52.337Z,118.13
2018-05-02T17:11:52.847Z,112.50
2018-05-02T17:13:51.261Z,112.50
2018-05-02T17:14:50.276Z,106.88
2018-05-02T17:16:48.536Z,106.88
2018-05-02T17:17:48.367Z,112.50
2018-05-02T17:19:46.846Z,106.88
2018-05-02T17:20:46.454Z,106.88
2018-05-02T17:22:47.456Z,106.88
2018-05-02T17:23:46.934Z,106.88
2018-05-02T17:25:45.441Z,101.25
2018-05-02T17:26:45.831Z,101.25
2018-05-02T17:28:43.336Z,95.63
2018-05-02T17:29:43.349Z,90.00
2018-05-02T17:31:40.811Z,84.38
2018-05-02T17:32:41.759Z,78.75
2018-05-02T17:34:42.220Z,78.75
2018-05-02T17:35:41.749Z,78.75
2018-05-02T17:37:42.199Z,78.75
2018-05-02T17:38:41.686Z,73.13
2018-05-02T17:40:41.193Z,73.13
2018-05-02T17:41:40.757Z,73.13
2018-05-02T17:43:41.257Z,67.50
2018-05-02T17:44:40.219Z,67.50
2018-05-02T17:46:40.699Z,61.88
2018-05-02T17:47:40.754Z,61.88
2018-05-02T17:49:42.154Z,61.88
2018-05-02T17:50:41.249Z,56.25
2018-05-02T17:52:39.680Z,56.25
2018-05-02T17:53:41.183Z,56.25
2018-05-02T17:55:38.773Z,50.63
2018-05-02T17:56:38.264Z,50.63
2018-05-02T17:58:37.776Z,50.63
2018-05-02T17:59:37.809Z,45.00
2018-05-02T18:01:35.866Z,45.00
2018-05-02T18:02:36.249Z,39.38
2018-05-02T18:04:36.212Z,39.38
2018-05-02T18:05:36.301Z,39.38
2018-05-02T18:07:36.762Z,39.38
2018-05-02T18:08:37.704Z,33.75
2018-05-02T18:10:35.675Z,33.75
2018-05-02T18:11:35.721Z,33.75
2018-05-02T18:13:35.775Z,33.75
2018-05-02T18:14:35.422Z,28.13
2018-05-02T18:16:33.772Z,28.13
2018-05-02T18:17:33.378Z,28.13
2018-05-02T18:19:33.896Z,28.13
2018-05-02T18:20:33.848Z,28.13
2018-05-02T18:22:34.306Z,22.50
2018-05-02T18:23:34.291Z,22.50
2018-05-02T18:25:32.374Z,22.50
2018-05-02T18:26:37.299Z,22.50
2018-05-02T18:28:28.391Z,16.88
2018-05-02T18:29:28.341Z,16.88
2018-05-02T18:31:29.291Z,16.88
2018-05-02T18:32:28.787Z,16.88
2018-05-02T18:34:28.263Z,11.25
2018-05-02T18:35:27.743Z,11.25
2018-05-02T18:37:25.350Z,11.25
2018-05-02T18:38:24.980Z,11.25
2018-05-02T18:40:23.997Z,11.25
2018-05-02T18:41:23.450Z,5.63
2018-05-02T18:43:25.380Z,5.63
2018-05-02T18:44:24.396Z,5.63
2018-05-02T18:46:21.364Z,5.63
2018-05-02T18:47:21.842Z,5.63
2018-05-02T18:49:21.784Z,5.63
2018-05-02T18:50:21.780Z,5.63
2018-05-02T18:52:19.770Z,0.00
2018-05-02T18:53:19.760Z,0.00